createdAt,value
2019-02-25T00:00:33.959Z,85.20
2019-02-25T00:05:37.343Z,85.20
2019-02-25T00:10:40.724Z,85.60
2019-02-25T00:15:44.119Z,86.10
2019-02-25T00:20:47.502Z,86.40
2019-02-25T00:25:50.884Z,87.40
2019-02-25T00:30:54.280Z,87.70
2019-02-25T00:35:57.672Z,87.80
2019-02-25T00:41:01.060Z,88.50
2019-02-25T00:46:04.522Z,89.00
2019-02-25T00:51:07.928Z,89.30
2019-02-25T00:56:11.312Z,89.50
2019-02-25T01:01:14.701Z,90.10
2019-02-25T01:06:18.078Z,90.30
2019-02-25T01:11:21.476Z,90.60
2019-02-25T01:16:24.851Z,90.90
2019-02-25T01:21:28.255Z,91.40
2019-02-25T01:26:31.675Z,91.50
2019-02-25T01:31:35.040Z,91.60
2019-02-25T01:36:38.435Z,91.70
2019-02-25T01:41:41.819Z,92.00
2019-02-25T01:46:45.225Z,92.40
2019-02-25T01:51:48.605Z,92.50
2019-02-25T01:56:51.983Z,92.90
2019-02-25T02:01:55.367Z,92.90
2019-02-25T02:06:58.743Z,93.00
2019-02-25T02:12:02.135Z,93.30
2019-02-25T02:17:05.521Z,93.30
2019-02-25T02:22:08.914Z,93.50
2019-02-25T02:27:12.304Z,93.70
2019-02-25T02:32:15.701Z,94.10
2019-02-25T02:37:19.076Z,94.40
2019-02-25T02:42:22.463Z,94.60
2019-02-25T02:47:37.626Z,94.70
2019-02-25T02:52:41.021Z,94.70
2019-02-25T02:57:44.414Z,94.80
2019-02-25T03:02:47.783Z,95.00
2019-02-25T03:07:51.179Z,95.00
2019-02-25T03:12:54.562Z,95.10
2019-02-25T03:17:57.952Z,95.40
2019-02-25T03:23:01.328Z,95.50
2019-02-25T03:28:04.717Z,95.40
2019-02-25T03:33:08.097Z,95.40
2019-02-25T03:38:11.483Z,95.40
2019-02-25T03:43:14.866Z,95.40
2019-02-25T03:48:18.263Z,95.60
2019-02-25T03:53:21.653Z,95.70
2019-02-25T03:58:25.032Z,95.30
2019-02-25T04:03:28.423Z,95.50
2019-02-25T04:08:31.875Z,95.30
2019-02-25T04:13:35.256Z,95.30
2019-02-25T04:18:38.653Z,95.20
2019-02-25T04:23:42.040Z,95.20
2019-02-25T04:28:46.280Z,95.20
2019-02-25T04:33:49.661Z,95.10
2019-02-25T04:38:53.048Z,95.10
2019-02-25T04:43:56.424Z,95.20
2019-02-25T04:48:59.824Z,95.00
2019-02-25T04:54:03.213Z,95.10
2019-02-25T04:59:06.608Z,95.30
2019-02-25T05:04:10.000Z,95.50
2019-02-25T05:09:13.647Z,95.40
2019-02-25T05:14:17.039Z,95.50
2019-02-25T05:19:20.418Z,95.50
2019-02-25T05:24:23.796Z,95.50
2019-02-25T05:29:27.188Z,95.40
2019-02-25T05:34:30.592Z,95.60
2019-02-25T05:39:33.982Z,95.70
2019-02-25T05:44:37.369Z,95.60
2019-02-25T05:49:40.747Z,95.80
2019-02-25T05:54:44.496Z,95.70
2019-02-25T05:59:47.878Z,95.80
2019-02-25T06:04:51.261Z,95.80
2019-02-25T06:09:54.643Z,96.10
2019-02-25T06:14:58.038Z,96.10
2019-02-25T06:20:01.414Z,96.10
2019-02-25T06:25:07.334Z,96.00
2019-02-25T06:30:21.059Z,96.10
2019-02-25T06:35:24.449Z,96.20
2019-02-25T06:40:27.828Z,96.20
2019-02-25T06:45:35.971Z,96.40
2019-02-25T06:50:39.367Z,96.50
2019-02-25T06:55:42.772Z,96.50
2019-02-25T07:00:46.167Z,96.50
2019-02-25T07:05:56.999Z,96.40
2019-02-25T07:11:02.035Z,96.20
2019-02-25T07:16:10.023Z,96.40
2019-02-25T07:21:17.751Z,96.30
2019-02-25T07:26:28.652Z,96.20
2019-02-25T07:31:39.515Z,96.00
2019-02-25T07:36:47.233Z,95.90
2019-02-25T07:42:03.819Z,95.80
2019-02-25T07:47:14.252Z,95.90
2019-02-25T07:52:31.083Z,95.60
2019-02-25T07:57:36.124Z,95.50
2019-02-25T08:02:41.135Z,95.10
2019-02-25T08:07:55.308Z,95.20
2019-02-25T08:13:00.319Z,95.10
2019-02-25T08:18:05.360Z,95.00
2019-02-25T08:23:16.259Z,95.10
2019-02-25T08:28:21.283Z,94.90
2019-02-25T08:33:44.115Z,95.40
2019-02-25T08:39:05.361Z,96.00
2019-02-25T08:44:19.127Z,96.40
2019-02-25T08:49:24.149Z,96.00
2019-02-25T08:54:27.538Z,96.70
2019-02-25T08:59:30.930Z,96.30
2019-02-25T09:04:34.314Z,95.90
2019-02-25T09:09:37.704Z,95.00
2019-02-25T09:14:41.083Z,95.70
2019-02-25T09:19:44.483Z,94.60
2019-02-25T09:24:47.862Z,94.40
2019-02-25T09:29:51.250Z,93.60
2019-02-25T09:34:54.622Z,93.00
2019-02-25T09:39:58.016Z,92.00
2019-02-25T09:45:01.410Z,90.40
2019-02-25T09:50:16.746Z,90.40
2019-02-25T09:55:20.118Z,84.50
2019-02-25T10:00:23.572Z,88.00
2019-02-25T10:05:26.953Z,83.70
2019-02-25T10:10:30.372Z,81.80
2019-02-25T10:15:33.752Z,84.60
2019-02-25T10:20:37.147Z,82.10
2019-02-25T10:25:40.547Z,83.60
2019-02-25T10:30:52.376Z,84.00
2019-02-25T10:35:49.028Z,82.80
2019-02-25T10:40:53.900Z,83.80
2019-02-25T10:45:57.378Z,80.10
2019-02-25T10:51:02.609Z,75.30
2019-02-25T10:56:16.664Z,76.80
2019-02-25T11:01:22.227Z,77.30
2019-02-25T11:06:26.802Z,75.30
2019-02-25T11:11:37.207Z,73.90
2019-02-25T11:16:42.002Z,70.40
2019-02-25T11:21:45.703Z,74.60
2019-02-25T11:26:49.102Z,70.90
2019-02-25T11:31:53.615Z,72.40
2019-02-25T11:36:59.375Z,73.00
2019-02-25T11:42:03.317Z,70.30
2019-02-25T11:47:08.036Z,68.70
2019-02-25T11:52:11.435Z,72.30
2019-02-25T11:57:14.824Z,73.40
2019-02-25T12:02:25.268Z,72.10
2019-02-25T12:07:23.451Z,71.10
2019-02-25T12:12:26.840Z,70.50
2019-02-25T12:17:30.225Z,72.30
2019-02-25T12:22:33.609Z,72.60
2019-02-25T12:27:36.992Z,68.00
2019-02-25T12:32:40.384Z,65.30
2019-02-25T12:37:43.900Z,74.10
2019-02-25T12:42:47.305Z,67.90
2019-02-25T12:47:50.692Z,68.80
2019-02-25T12:52:54.089Z,69.60
2019-02-25T12:57:57.489Z,69.10
2019-02-25T13:03:00.881Z,69.90
2019-02-25T13:08:04.275Z,68.10
2019-02-25T13:13:07.687Z,72.60
2019-02-25T13:18:11.059Z,67.60
2019-02-25T13:23:14.435Z,69.40
2019-02-25T13:28:17.816Z,66.00
2019-02-25T13:33:21.200Z,66.80
2019-02-25T13:38:24.587Z,65.00
2019-02-25T13:43:27.971Z,65.10
2019-02-25T13:48:31.431Z,67.30
2019-02-25T13:53:34.895Z,66.00
2019-02-25T13:58:38.391Z,65.70
2019-02-25T14:03:41.812Z,67.50
2019-02-25T14:08:45.376Z,67.20
2019-02-25T14:13:48.764Z,68.00
2019-02-25T14:18:52.144Z,66.90
2019-02-25T14:23:57.721Z,68.00
2019-02-25T14:29:00.649Z,66.00
2019-02-25T14:34:04.328Z,65.90
2019-02-25T14:39:10.855Z,66.60
2019-02-25T14:44:14.851Z,67.50
2019-02-25T14:49:18.234Z,68.40
2019-02-25T14:54:22.299Z,68.90
2019-02-25T14:59:26.744Z,67.90
2019-02-25T15:04:30.135Z,67.90
2019-02-25T15:09:34.724Z,67.80
2019-02-25T15:14:38.703Z,69.20
2019-02-25T15:19:42.911Z,64.80
2019-02-25T15:24:48.189Z,68.80
2019-02-25T15:29:51.428Z,65.60
2019-02-25T15:34:55.565Z,65.80
2019-02-25T15:39:59.937Z,63.30
2019-02-25T15:45:04.501Z,64.70
2019-02-25T15:50:10.612Z,65.20
2019-02-25T15:55:17.356Z,63.20
2019-02-25T16:00:23.438Z,62.80
2019-02-25T16:05:31.891Z,62.30
2019-02-25T16:10:35.127Z,62.00
2019-02-25T16:15:39.952Z,63.60
2019-02-25T16:20:45.748Z,64.40
2019-02-25T16:25:50.398Z,64.20
2019-02-25T16:30:53.631Z,64.60
2019-02-25T16:35:57.023Z,63.90
2019-02-25T16:41:00.961Z,64.60
2019-02-25T16:46:06.456Z,64.80
2019-02-25T16:51:12.456Z,64.20
2019-02-25T16:56:16.097Z,65.50
2019-02-25T17:01:19.749Z,65.20
2019-02-25T17:06:23.213Z,65.30
2019-02-25T17:11:26.742Z,66.10
2019-02-25T17:16:30.128Z,65.80
2019-02-25T17:21:33.502Z,66.10
2019-02-25T17:26:36.888Z,66.20
2019-02-25T17:31:40.852Z,66.30
2019-02-25T17:36:44.856Z,66.30
2019-02-25T17:41:48.987Z,66.70
2019-02-25T17:46:52.355Z,67.80
2019-02-25T17:51:57.650Z,67.40
2019-02-25T17:57:00.851Z,67.40
2019-02-25T18:02:06.147Z,67.50
2019-02-25T18:07:09.475Z,67.90
2019-02-25T18:12:12.858Z,68.20
2019-02-25T18:17:17.470Z,69.60
2019-02-25T18:22:21.332Z,69.60
2019-02-25T18:27:25.059Z,70.20
2019-02-25T18:32:30.391Z,70.50
2019-02-25T18:37:35.287Z,70.80
2019-02-25T18:42:40.847Z,70.90
2019-02-25T18:47:44.423Z,70.80
2019-02-25T18:52:49.783Z,71.40
2019-02-25T18:57:53.643Z,71.80
2019-02-25T19:02:58.303Z,72.20
2019-02-25T19:08:04.384Z,72.60
2019-02-25T19:13:07.909Z,73.10
2019-02-25T19:18:13.056Z,73.30
2019-02-25T19:23:16.795Z,73.90
2019-02-25T19:28:22.127Z,74.00
2019-02-25T19:33:25.439Z,74.70
2019-02-25T19:38:32.061Z,75.60
2019-02-25T19:43:34.098Z,75.20
2019-02-25T19:48:37.540Z,75.60
2019-02-25T19:53:42.833Z,76.80
2019-02-25T19:58:46.059Z,76.50
2019-02-25T20:03:49.449Z,76.90
2019-02-25T20:08:53.504Z,77.50
2019-02-25T20:14:00.932Z,77.80
2019-02-25T20:19:04.587Z,78.50
2019-02-25T20:24:12.345Z,79.60
2019-02-25T20:29:13.219Z,79.90
2019-02-25T20:34:18.859Z,80.60
2019-02-25T20:39:21.765Z,81.20
2019-02-25T20:44:26.240Z,81.90
2019-02-25T20:49:31.863Z,82.30
2019-02-25T20:54:38.171Z,82.90
2019-02-25T20:59:40.404Z,83.50
2019-02-25T21:04:45.493Z,84.00
2019-02-25T21:09:49.936Z,84.70
2019-02-25T21:14:53.441Z,85.30
2019-02-25T21:19:58.205Z,86.30
2019-02-25T21:25:03.131Z,87.20
2019-02-25T21:30:16.995Z,87.80
2019-02-25T21:35:23.459Z,88.50
2019-02-25T21:40:29.389Z,89.20
2019-02-25T21:45:32.350Z,89.80
2019-02-25T21:50:36.697Z,90.20
2019-02-25T21:55:41.011Z,90.70
2019-02-25T22:00:44.403Z,90.90
2019-02-25T22:05:49.557Z,91.30
2019-02-25T22:10:52.908Z,91.30
2019-02-25T22:15:57.417Z,91.30
2019-02-25T22:21:05.124Z,91.50
2019-02-25T22:26:06.688Z,91.60
2019-02-25T22:31:10.795Z,91.60
2019-02-25T22:36:15.173Z,91.90
2019-02-25T22:41:20.207Z,91.60
2019-02-25T22:46:28.079Z,91.90
2019-02-25T22:51:30.641Z,92.60
2019-02-25T22:56:33.860Z,92.10
2019-02-25T23:01:37.458Z,92.40
2019-02-25T23:06:43.901Z,92.60
2019-02-25T23:11:46.518Z,92.90
2019-02-25T23:16:51.007Z,93.30
2019-02-25T23:21:54.398Z,93.20
2019-02-25T23:26:59.531Z,93.60
2019-02-25T23:32:03.038Z,93.70
2019-02-25T23:37:08.395Z,93.60
2019-02-25T23:42:13.472Z,93.80
2019-02-25T23:47:16.619Z,93.90
2019-02-25T23:52:19.995Z,94.60
2019-02-25T23:57:23.943Z,94.60
